sensor_id;sensor_type;location;lat;lon;timestamp;noise_LAeq;noise_LA_min;noise_LA_max;noise_LA01;noise_LA95
64545;Laerm;50936;51.660;5.616;2024-03-23T00:53:02;49.62;41.68;63.40;;
64545;Laerm;50936;51.660;5.616;2024-03-23T00:55:48;48.15;41.22;65.18;;
64545;Laerm;50936;51.660;5.616;2024-03-23T00:58:34;47.70;40.53;62.77;;
64545;Laerm;50936;51.660;5.616;2024-03-23T01:01:21;52.96;41.38;65.67;;
64545;Laerm;50936;51.660;5.616;2024-03-23T01:04:07;48.58;42.09;65.45;;
64545;Laerm;50936;51.660;5.616;2024-03-23T01:06:53;50.14;40.62;66.90;;
64545;Laerm;50936;51.660;5.616;2024-03-23T01:09:39;54.48;40.33;66.43;;
64545;Laerm;50936;51.660;5.616;2024-03-23T01:12:25;50.27;41.89;67.93;;
64545;Laerm;50936;51.660;5.616;2024-03-23T01:15:12;51.06;40.43;64.67;;
64545;Laerm;50936;51.660;5.616;2024-03-23T01:17:58;49.06;41.06;61.80;;
64545;Laerm;50936;51.660;5.616;2024-03-23T01:20:44;57.57;40.23;77.04;;
64545;Laerm;50936;51.660;5.616;2024-03-23T01:23:30;47.79;41.26;68.30;;
64545;Laerm;50936;51.660;5.616;2024-03-23T01:26:17;54.83;41.53;69.91;;
64545;Laerm;50936;51.660;5.616;2024-03-23T01:29:03;54.18;41.46;70.54;;
64545;Laerm;50936;51.660;5.616;2024-03-23T01:31:49;54.26;41.14;66.42;;
64545;Laerm;50936;51.660;5.616;2024-03-23T01:34:35;51.20;40.33;67.91;;
64545;Laerm;50936;51.660;5.616;2024-03-23T01:37:22;49.35;40.80;62.51;;
64545;Laerm;50936;51.660;5.616;2024-03-23T01:40:08;49.75;39.81;71.73;;
64545;Laerm;50936;51.660;5.616;2024-03-23T01:43:03;49.50;40.23;66.58;;
64545;Laerm;50936;51.660;5.616;2024-03-23T01:45:50;53.38;40.03;73.97;;
64545;Laerm;50936;51.660;5.616;2024-03-23T01:48:39;50.44;40.13;73.36;;
64545;Laerm;50936;51.660;5.616;2024-03-23T01:51:26;48.14;39.92;69.47;;
64545;Laerm;50936;51.660;5.616;2024-03-23T01:54:13;51.67;39.81;69.12;;
64545;Laerm;50936;51.660;5.616;2024-03-23T01:56:59;57.90;40.23;77.82;;
64545;Laerm;50936;51.660;5.616;2024-03-23T01:59:46;52.58;39.81;72.57;;
64545;Laerm;50936;51.660;5.616;2024-03-23T02:05:30;51.49;40.13;74.59;;
64545;Laerm;50936;51.660;5.616;2024-03-23T02:08:18;50.56;39.58;68.47;;
64545;Laerm;50936;51.660;5.616;2024-03-23T02:11:05;48.97;40.79;64.99;;
64545;Laerm;50936;51.660;5.616;2024-03-23T02:13:51;48.91;39.92;64.29;;
64545;Laerm;50936;51.660;5.616;2024-03-23T02:16:38;51.97;40.43;69.61;;
64545;Laerm;50936;51.660;5.616;2024-03-23T02:19:24;49.77;39.81;67.62;;
64545;Laerm;50936;51.660;5.616;2024-03-23T02:22:10;52.06;39.58;68.47;;
64545;Laerm;50936;51.660;5.616;2024-03-23T02:24:57;50.69;39.92;70.45;;
64545;Laerm;50936;51.660;5.616;2024-03-23T02:27:43;47.79;40.43;67.80;;
64545;Laerm;50936;51.660;5.616;2024-03-23T02:30:29;44.86;39.70;59.72;;
64545;Laerm;50936;51.660;5.616;2024-03-23T02:33:16;52.94;39.58;73.48;;
64545;Laerm;50936;51.660;5.616;2024-03-23T02:36:03;50.77;40.13;66.18;;
64545;Laerm;50936;51.660;5.616;2024-03-23T02:38:49;48.40;39.92;68.24;;
64545;Laerm;50936;51.660;5.616;2024-03-23T02:41:36;48.83;39.70;60.89;;
64545;Laerm;50936;51.660;5.616;2024-03-23T02:44:22;50.05;39.92;74.98;;
64545;Laerm;50936;51.660;5.616;2024-03-23T02:47:09;48.99;39.81;71.43;;
64545;Laerm;50936;51.660;5.616;2024-03-23T02:49:55;52.43;39.81;70.98;;
64545;Laerm;50936;51.660;5.616;2024-03-23T02:52:41;47.73;39.81;63.08;;
64545;Laerm;50936;51.660;5.616;2024-03-23T02:55:27;49.79;39.70;69.20;;
64545;Laerm;50936;51.660;5.616;2024-03-23T02:58:15;49.22;40.43;68.09;;
64545;Laerm;50936;51.660;5.616;2024-03-23T03:01:01;46.07;40.03;65.12;;
64545;Laerm;50936;51.660;5.616;2024-03-23T03:03:47;48.00;40.23;64.12;;
64545;Laerm;50936;51.660;5.616;2024-03-23T03:06:33;47.97;40.13;71.02;;
64545;Laerm;50936;51.660;5.616;2024-03-23T03:09:20;52.87;39.58;77.66;;
64545;Laerm;50936;51.660;5.616;2024-03-23T03:12:07;52.02;39.81;69.80;;
64545;Laerm;50936;51.660;5.616;2024-03-23T03:14:54;46.34;40.27;63.69;;
64545;Laerm;50936;51.660;5.616;2024-03-23T03:17:40;56.66;40.71;79.84;;
64545;Laerm;50936;51.660;5.616;2024-03-23T03:20:26;47.59;39.58;66.73;;
64545;Laerm;50936;51.660;5.616;2024-03-23T03:23:12;44.20;39.81;60.90;;
64545;Laerm;50936;51.660;5.616;2024-03-23T03:25:58;47.74;39.70;73.18;;
64545;Laerm;50936;51.660;5.616;2024-03-23T03:28:45;50.46;40.13;71.76;;
64545;Laerm;50936;51.660;5.616;2024-03-23T03:31:34;50.05;40.33;69.00;;
64545;Laerm;50936;51.660;5.616;2024-03-23T03:34:21;42.88;40.33;53.95;;
64545;Laerm;50936;51.660;5.616;2024-03-23T03:37:07;43.60;39.92;59.44;;
64545;Laerm;50936;51.660;5.616;2024-03-23T03:39:53;50.82;40.03;76.40;;
64545;Laerm;50936;51.660;5.616;2024-03-23T03:42:39;52.85;41.14;68.71;;
64545;Laerm;50936;51.660;5.616;2024-03-23T03:45:25;46.43;40.62;66.75;;
64545;Laerm;50936;51.660;5.616;2024-03-23T03:48:12;50.51;40.98;67.46;;
64545;Laerm;50936;51.660;5.616;2024-03-23T03:50:58;47.23;40.33;66.35;;
64545;Laerm;50936;51.660;5.616;2024-03-23T03:53:44;45.14;39.92;62.58;;
64545;Laerm;50936;51.660;5.616;2024-03-23T03:56:31;45.44;40.80;63.61;;
64545;Laerm;50936;51.660;5.616;2024-03-23T03:59:18;50.67;40.33;70.70;;
64545;Laerm;50936;51.660;5.616;2024-03-23T04:02:04;47.39;40.43;71.44;;
64545;Laerm;50936;51.660;5.616;2024-03-23T04:04:50;48.66;40.89;64.81;;
64545;Laerm;50936;51.660;5.616;2024-03-23T04:07:36;48.39;40.43;72.66;;
64545;Laerm;50936;51.660;5.616;2024-03-23T04:10:22;46.90;41.30;62.22;;
64545;Laerm;50936;51.660;5.616;2024-03-23T04:13:08;45.03;40.89;64.94;;
64545;Laerm;50936;51.660;5.616;2024-03-23T04:15:56;47.52;40.89;65.59;;
64545;Laerm;50936;51.660;5.616;2024-03-23T04:18:42;52.38;41.96;72.32;;
64545;Laerm;50936;51.660;5.616;2024-03-23T04:21:28;50.20;40.43;64.63;;
64545;Laerm;50936;51.660;5.616;2024-03-23T04:24:15;44.45;40.98;62.13;;
64545;Laerm;50936;51.660;5.616;2024-03-23T04:27:01;52.28;42.03;73.06;;
64545;Laerm;50936;51.660;5.616;2024-03-23T04:29:48;51.35;41.06;73.89;;
64545;Laerm;50936;51.660;5.616;2024-03-23T04:32:35;56.77;41.30;79.76;;
64545;Laerm;50936;51.660;5.616;2024-03-23T04:35:21;48.79;41.53;66.11;;
64545;Laerm;50936;51.660;5.616;2024-03-23T04:38:10;49.50;41.06;69.88;;
64545;Laerm;50936;51.660;5.616;2024-03-23T04:40:58;47.16;41.33;70.14;;
64545;Laerm;50936;51.660;5.616;2024-03-23T04:43:45;52.62;41.68;70.54;;
64545;Laerm;50936;51.660;5.616;2024-03-23T04:46:32;53.55;41.61;73.05;;
64545;Laerm;50936;51.660;5.616;2024-03-23T04:49:19;50.98;41.68;69.71;;
64545;Laerm;50936;51.660;5.616;2024-03-23T04:52:06;48.98;41.61;66.71;;
64545;Laerm;50936;51.660;5.616;2024-03-23T04:54:52;51.41;42.16;70.54;;
64545;Laerm;50936;51.660;5.616;2024-03-23T04:57:38;55.32;42.03;74.85;;
64545;Laerm;50936;51.660;5.616;2024-03-23T05:00:25;49.69;41.46;68.41;;
64545;Laerm;50936;51.660;5.616;2024-03-23T05:03:12;50.83;41.75;66.15;;
64545;Laerm;50936;51.660;5.616;2024-03-23T05:05:58;46.43;41.14;67.80;;
64545;Laerm;50936;51.660;5.616;2024-03-23T05:08:45;53.70;41.68;72.40;;
64545;Laerm;50936;51.660;5.616;2024-03-23T05:11:33;50.58;40.43;68.93;;
64545;Laerm;50936;51.660;5.616;2024-03-23T05:14:19;57.32;41.53;79.89;;
64545;Laerm;50936;51.660;5.616;2024-03-23T05:17:05;54.17;42.35;76.15;;
64545;Laerm;50936;51.660;5.616;2024-03-23T05:19:51;56.03;42.29;77.93;;
64545;Laerm;50936;51.660;5.616;2024-03-23T05:22:39;53.91;42.35;71.06;;
64545;Laerm;50936;51.660;5.616;2024-03-23T05:25:25;52.25;43.19;72.00;;
64545;Laerm;50936;51.660;5.616;2024-03-23T05:28:12;55.76;42.82;75.73;;
64545;Laerm;50936;51.660;5.616;2024-03-23T05:30:58;54.17;42.16;73.89;;
64545;Laerm;50936;51.660;5.616;2024-03-23T05:33:45;54.31;42.47;77.27;;
64545;Laerm;50936;51.660;5.616;2024-03-23T05:36:34;56.20;41.96;76.04;;
64545;Laerm;50936;51.660;5.616;2024-03-23T05:39:20;57.55;43.24;79.25;;
64545;Laerm;50936;51.660;5.616;2024-03-23T05:42:08;58.16;42.76;88.05;;
64545;Laerm;50936;51.660;5.616;2024-03-23T05:44:54;57.29;42.82;78.36;;
64545;Laerm;50936;51.660;5.616;2024-03-23T05:47:40;56.22;43.68;76.21;;
64545;Laerm;50936;51.660;5.616;2024-03-23T05:50:27;57.62;43.94;81.92;;
64545;Laerm;50936;51.660;5.616;2024-03-23T05:53:15;57.62;44.07;77.66;;
64545;Laerm;50936;51.660;5.616;2024-03-23T05:56:03;58.35;44.34;78.38;;
64545;Laerm;50936;51.660;5.616;2024-03-23T05:58:50;58.20;42.41;75.24;;
64545;Laerm;50936;51.660;5.616;2024-03-23T06:01:36;58.11;43.29;77.18;;
64545;Laerm;50936;51.660;5.616;2024-03-23T06:04:22;56.19;42.59;77.11;;
64545;Laerm;50936;51.660;5.616;2024-03-23T06:07:08;58.61;42.35;78.83;;
64545;Laerm;50936;51.660;5.616;2024-03-23T06:09:59;52.04;42.29;70.43;;
64545;Laerm;50936;51.660;5.616;2024-03-23T06:12:46;57.14;43.72;74.21;;
64545;Laerm;50936;51.660;5.616;2024-03-23T06:15:32;55.11;43.29;74.27;;
64545;Laerm;50936;51.660;5.616;2024-03-23T06:18:22;53.47;43.58;73.26;;
64545;Laerm;50936;51.660;5.616;2024-03-23T06:21:13;57.59;43.34;73.07;;
64545;Laerm;50936;51.660;5.616;2024-03-23T06:24:00;55.98;43.58;74.98;;
64545;Laerm;50936;51.660;5.616;2024-03-23T06:26:46;57.90;42.58;75.37;;
64545;Laerm;50936;51.660;5.616;2024-03-23T06:29:32;60.72;43.04;79.87;;
64545;Laerm;50936;51.660;5.616;2024-03-23T06:32:18;57.65;43.68;76.38;;
64545;Laerm;50936;51.660;5.616;2024-03-23T06:35:05;56.40;43.04;72.27;;
64545;Laerm;50936;51.660;5.616;2024-03-23T06:37:55;56.34;43.54;75.27;;
64545;Laerm;50936;51.660;5.616;2024-03-23T06:40:41;60.42;45.48;78.73;;
64545;Laerm;50936;51.660;5.616;2024-03-23T06:43:27;58.83;44.43;74.80;;
64545;Laerm;50936;51.660;5.616;2024-03-23T06:46:14;62.10;45.07;83.48;;
64545;Laerm;50936;51.660;5.616;2024-03-23T06:49:00;62.52;43.34;86.91;;
64545;Laerm;50936;51.660;5.616;2024-03-23T06:51:46;61.22;43.81;77.47;;
64545;Laerm;50936;51.660;5.616;2024-03-23T06:54:33;62.40;47.24;79.79;;
64545;Laerm;50936;51.660;5.616;2024-03-23T06:57:19;59.00;44.62;78.14;;
64545;Laerm;50936;51.660;5.616;2024-03-23T07:00:05;63.52;43.90;83.28;;
64545;Laerm;50936;51.660;5.616;2024-03-23T07:02:55;60.21;45.97;76.16;;
64545;Laerm;50936;51.660;5.616;2024-03-23T07:05:42;61.16;45.94;82.69;;
64545;Laerm;50936;51.660;5.616;2024-03-23T07:08:28;56.45;45.11;78.87;;
64545;Laerm;50936;51.660;5.616;2024-03-23T07:11:22;61.83;44.76;81.50;;
64545;Laerm;50936;51.660;5.616;2024-03-23T07:14:08;61.07;45.36;80.34;;
64545;Laerm;50936;51.660;5.616;2024-03-23T07:16:55;63.75;44.39;82.65;;
64545;Laerm;50936;51.660;5.616;2024-03-23T07:19:41;59.22;44.90;78.48;;
64545;Laerm;50936;51.660;5.616;2024-03-23T07:22:27;64.34;45.54;85.37;;
64545;Laerm;50936;51.660;5.616;2024-03-23T07:25:14;65.90;47.32;86.25;;
64545;Laerm;50936;51.660;5.616;2024-03-23T07:28:01;63.75;48.12;84.12;;
64545;Laerm;50936;51.660;5.616;2024-03-23T07:30:47;66.84;44.87;86.25;;
64545;Laerm;50936;51.660;5.616;2024-03-23T07:33:37;61.97;48.08;80.61;;
64545;Laerm;50936;51.660;5.616;2024-03-23T07:36:23;67.51;45.20;87.51;;
64545;Laerm;50936;51.660;5.616;2024-03-23T07:39:09;64.30;46.73;82.24;;
64545;Laerm;50936;51.660;5.616;2024-03-23T07:41:55;65.46;47.00;86.58;;
64545;Laerm;50936;51.660;5.616;2024-03-23T07:44:42;68.10;47.18;88.92;;
64545;Laerm;50936;51.660;5.616;2024-03-23T07:47:28;62.11;45.97;80.08;;
64545;Laerm;50936;51.660;5.616;2024-03-23T07:50:15;63.20;45.57;85.19;;
64545;Laerm;50936;51.660;5.616;2024-03-23T07:53:01;60.49;47.57;78.80;;
64545;Laerm;50936;51.660;5.616;2024-03-23T07:55:59;64.49;45.42;88.43;;
64545;Laerm;50936;51.660;5.616;2024-03-23T07:58:45;67.03;49.40;86.60;;
64545;Laerm;50936;51.660;5.616;2024-03-23T08:01:32;72.72;47.57;94.52;;
64545;Laerm;50936;51.660;5.616;2024-03-23T08:04:19;59.23;47.38;76.14;;
64545;Laerm;50936;51.660;5.616;2024-03-23T08:07:05;67.04;45.75;87.19;;
64545;Laerm;50936;51.660;5.616;2024-03-23T08:09:51;73.06;47.54;91.42;;
64545;Laerm;50936;51.660;5.616;2024-03-23T08:12:37;69.30;46.82;86.69;;
64545;Laerm;50936;51.660;5.616;2024-03-23T08:15:23;75.72;46.57;95.58;;
64545;Laerm;50936;51.660;5.616;2024-03-23T08:18:11;70.89;48.74;93.01;;
64545;Laerm;50936;51.660;5.616;2024-03-23T08:21:02;64.43;46.27;80.96;;
64545;Laerm;50936;51.660;5.616;2024-03-23T08:23:49;62.94;49.92;81.00;;
64545;Laerm;50936;51.660;5.616;2024-03-23T08:26:36;73.65;50.71;93.55;;
64545;Laerm;50936;51.660;5.616;2024-03-23T08:29:23;62.90;47.22;82.63;;
64545;Laerm;50936;51.660;5.616;2024-03-23T08:32:09;67.02;48.45;88.61;;
64545;Laerm;50936;51.660;5.616;2024-03-23T08:34:56;71.04;49.35;90.98;;
64545;Laerm;50936;51.660;5.616;2024-03-23T08:37:42;74.60;49.20;94.58;;
64545;Laerm;50936;51.660;5.616;2024-03-23T08:40:28;71.65;48.83;90.06;;
64545;Laerm;50936;51.660;5.616;2024-03-23T08:43:15;71.96;46.43;96.78;;
64545;Laerm;50936;51.660;5.616;2024-03-23T08:46:13;71.80;48.63;95.86;;
64545;Laerm;50936;51.660;5.616;2024-03-23T08:48:59;70.23;47.06;91.31;;
64545;Laerm;50936;51.660;5.616;2024-03-23T08:51:45;71.86;49.59;95.21;;
64545;Laerm;50936;51.660;5.616;2024-03-23T08:54:31;73.25;53.13;92.42;;
64545;Laerm;50936;51.660;5.616;2024-03-23T08:57:17;65.61;48.26;84.81;;
64545;Laerm;50936;51.660;5.616;2024-03-23T09:00:04;68.23;50.58;90.96;;
64545;Laerm;50936;51.660;5.616;2024-03-23T09:02:52;68.60;48.73;90.15;;
64545;Laerm;50936;51.660;5.616;2024-03-23T09:05:39;70.97;49.24;86.53;;
64545;Laerm;50936;51.660;5.616;2024-03-23T09:08:26;66.98;49.52;87.80;;
64545;Laerm;50936;51.660;5.616;2024-03-23T09:11:13;65.63;49.91;82.50;;
64545;Laerm;50936;51.660;5.616;2024-03-23T09:13:59;64.51;47.46;86.08;;
64545;Laerm;50936;51.660;5.616;2024-03-23T09:16:46;66.71;50.72;86.40;;
64545;Laerm;50936;51.660;5.616;2024-03-23T09:19:32;60.03;49.50;81.17;;
64545;Laerm;50936;51.660;5.616;2024-03-23T09:22:18;60.54;49.52;77.18;;
64545;Laerm;50936;51.660;5.616;2024-03-23T09:25:05;63.01;52.04;85.26;;
64545;Laerm;50936;51.660;5.616;2024-03-23T09:27:51;60.11;49.90;74.51;;
64545;Laerm;50936;51.660;5.616;2024-03-23T09:30:37;61.90;50.63;82.59;;
64545;Laerm;50936;51.660;5.616;2024-03-23T09:33:29;61.60;48.98;78.81;;
64545;Laerm;50936;51.660;5.616;2024-03-23T09:36:16;68.80;48.98;89.62;;
64545;Laerm;50936;51.660;5.616;2024-03-23T09:39:02;67.84;51.48;87.31;;
64545;Laerm;50936;51.660;5.616;2024-03-23T09:41:49;65.52;50.51;84.58;;
64545;Laerm;50936;51.660;5.616;2024-03-23T09:44:36;65.40;50.37;86.14;;
64545;Laerm;50936;51.660;5.616;2024-03-23T09:47:24;63.09;51.59;80.64;;
64545;Laerm;50936;51.660;5.616;2024-03-23T09:50:11;70.75;50.46;89.15;;
64545;Laerm;50936;51.660;5.616;2024-03-23T09:52:57;69.62;49.71;88.16;;
64545;Laerm;50936;51.660;5.616;2024-03-23T09:55:44;70.56;53.15;96.43;;
64545;Laerm;50936;51.660;5.616;2024-03-23T09:58:31;66.16;53.00;85.51;;
64545;Laerm;50936;51.660;5.616;2024-03-23T10:01:18;67.34;52.10;87.03;;
64545;Laerm;50936;51.660;5.616;2024-03-23T10:04:05;75.05;51.54;97.12;;
64545;Laerm;50936;51.660;5.616;2024-03-23T10:06:51;72.12;53.03;89.43;;
64545;Laerm;50936;51.660;5.616;2024-03-23T10:09:37;77.66;50.16;98.23;;
64545;Laerm;50936;51.660;5.616;2024-03-23T10:12:24;80.68;53.03;99.56;;
64545;Laerm;50936;51.660;5.616;2024-03-23T10:15:21;81.27;53.43;102.38;;
64545;Laerm;50936;51.660;5.616;2024-03-23T10:18:21;74.47;52.36;94.86;;
64545;Laerm;50936;51.660;5.616;2024-03-23T10:21:10;77.79;51.09;101.11;;
64545;Laerm;50936;51.660;5.616;2024-03-23T10:24:08;77.75;49.71;101.41;;
64545;Laerm;50936;51.660;5.616;2024-03-23T10:26:58;83.19;51.05;104.54;;
64545;Laerm;50936;51.660;5.616;2024-03-23T10:29:48;69.48;49.90;89.21;;
64545;Laerm;50936;51.660;5.616;2024-03-23T10:32:35;81.20;51.70;101.73;;
64545;Laerm;50936;51.660;5.616;2024-03-23T10:35:22;74.68;55.53;94.54;;
64545;Laerm;50936;51.660;5.616;2024-03-23T10:38:09;79.10;56.09;98.68;;
64545;Laerm;50936;51.660;5.616;2024-03-23T10:40:56;71.78;50.64;94.52;;
64545;Laerm;50936;51.660;5.616;2024-03-23T10:43:47;74.26;52.51;97.02;;
64545;Laerm;50936;51.660;5.616;2024-03-23T10:46:34;74.09;50.57;96.78;;
64545;Laerm;50936;51.660;5.616;2024-03-23T10:49:20;73.93;54.40;91.37;;
64545;Laerm;50936;51.660;5.616;2024-03-23T10:52:06;77.61;53.32;96.26;;
64545;Laerm;50936;51.660;5.616;2024-03-23T10:54:55;74.68;52.15;96.52;;
64545;Laerm;50936;51.660;5.616;2024-03-23T10:57:54;74.30;52.04;94.79;;
64545;Laerm;50936;51.660;5.616;2024-03-23T11:00:41;73.00;49.97;91.38;;
64545;Laerm;50936;51.660;5.616;2024-03-23T11:03:36;68.27;50.98;88.89;;
64545;Laerm;50936;51.660;5.616;2024-03-23T11:06:38;76.81;53.47;94.26;;
64545;Laerm;50936;51.660;5.616;2024-03-23T11:09:42;78.00;53.58;95.95;;
64545;Laerm;50936;51.660;5.616;2024-03-23T11:12:31;79.46;53.23;96.46;;
64545;Laerm;50936;51.660;5.616;2024-03-23T11:15:19;75.46;49.95;96.71;;
64545;Laerm;50936;51.660;5.616;2024-03-23T11:18:07;73.13;52.00;95.34;;
64545;Laerm;50936;51.660;5.616;2024-03-23T11:20:58;72.55;51.57;92.25;;
64545;Laerm;50936;51.660;5.616;2024-03-23T11:23:44;78.63;51.86;98.84;;
64545;Laerm;50936;51.660;5.616;2024-03-23T11:26:30;78.74;54.68;96.64;;
64545;Laerm;50936;51.660;5.616;2024-03-23T11:29:17;68.58;56.20;91.50;;
64545;Laerm;50936;51.660;5.616;2024-03-23T11:32:04;63.34;54.06;81.24;;
64545;Laerm;50936;51.660;5.616;2024-03-23T11:34:51;68.12;52.74;87.00;;
64545;Laerm;50936;51.660;5.616;2024-03-23T11:37:37;63.62;51.89;84.48;;
64545;Laerm;50936;51.660;5.616;2024-03-23T11:40:24;68.21;54.29;86.92;;
64545;Laerm;50936;51.660;5.616;2024-03-23T11:43:15;68.95;53.85;88.22;;
64545;Laerm;50936;51.660;5.616;2024-03-23T11:46:02;70.75;53.98;95.12;;
64545;Laerm;50936;51.660;5.616;2024-03-23T11:48:50;72.36;52.24;89.64;;
64545;Laerm;50936;51.660;5.616;2024-03-23T11:51:39;75.57;51.31;99.76;;
64545;Laerm;50936;51.660;5.616;2024-03-23T11:54:26;75.05;52.38;95.72;;
64545;Laerm;50936;51.660;5.616;2024-03-23T11:57:13;62.24;53.61;87.89;;
64545;Laerm;50936;51.660;5.616;2024-03-23T11:59:59;79.07;51.83;102.70;;
64545;Laerm;50936;51.660;5.616;2024-03-23T12:02:45;69.38;53.79;89.87;;
64545;Laerm;50936;51.660;5.616;2024-03-23T12:05:33;63.90;55.58;83.42;;
64545;Laerm;50936;51.660;5.616;2024-03-23T12:08:33;63.92;52.80;84.40;;
64545;Laerm;50936;51.660;5.616;2024-03-23T12:11:19;64.20;56.72;81.04;;
64545;Laerm;50936;51.660;5.616;2024-03-23T12:14:05;64.30;56.50;81.08;;
64545;Laerm;50936;51.660;5.616;2024-03-23T12:16:52;67.47;55.66;84.95;;
64545;Laerm;50936;51.660;5.616;2024-03-23T12:19:39;65.38;54.11;80.61;;
64545;Laerm;50936;51.660;5.616;2024-03-23T12:22:27;61.00;54.54;79.74;;
64545;Laerm;50936;51.660;5.616;2024-03-23T12:25:15;66.63;54.89;88.15;;
64545;Laerm;50936;51.660;5.616;2024-03-23T12:28:02;67.22;54.77;88.23;;
64545;Laerm;50936;51.660;5.616;2024-03-23T12:30:48;68.79;54.70;87.00;;
64545;Laerm;50936;51.660;5.616;2024-03-23T12:33:35;77.49;53.96;100.68;;
64545;Laerm;50936;51.660;5.616;2024-03-23T12:36:21;77.83;53.38;98.64;;
64545;Laerm;50936;51.660;5.616;2024-03-23T12:39:07;74.71;52.97;94.68;;
64545;Laerm;50936;51.660;5.616;2024-03-23T12:41:54;80.30;53.50;101.22;;
64545;Laerm;50936;51.660;5.616;2024-03-23T12:44:40;81.78;55.55;102.49;;
64545;Laerm;50936;51.660;5.616;2024-03-23T12:47:27;72.32;54.51;90.93;;
64545;Laerm;50936;51.660;5.616;2024-03-23T12:50:14;71.05;53.13;91.10;;
64545;Laerm;50936;51.660;5.616;2024-03-23T12:53:00;69.18;54.89;91.50;;
64545;Laerm;50936;51.660;5.616;2024-03-23T12:55:46;74.98;53.74;94.35;;
64545;Laerm;50936;51.660;5.616;2024-03-23T12:58:32;66.90;54.39;88.57;;
64545;Laerm;50936;51.660;5.616;2024-03-23T13:01:19;70.20;52.88;88.79;;
64545;Laerm;50936;51.660;5.616;2024-03-23T13:04:06;77.00;53.19;96.39;;
64545;Laerm;50936;51.660;5.616;2024-03-23T13:06:52;78.60;52.92;96.71;;
64545;Laerm;50936;51.660;5.616;2024-03-23T13:09:38;75.23;54.70;94.82;;
64545;Laerm;50936;51.660;5.616;2024-03-23T13:12:25;81.20;54.87;99.25;;
64545;Laerm;50936;51.660;5.616;2024-03-23T13:15:11;79.77;53.90;98.81;;
64545;Laerm;50936;51.660;5.616;2024-03-23T13:17:57;71.83;55.42;91.64;;
64545;Laerm;50936;51.660;5.616;2024-03-23T13:20:44;73.82;54.67;95.25;;
64545;Laerm;50936;51.660;5.616;2024-03-23T13:23:31;75.78;55.19;98.91;;
64545;Laerm;50936;51.660;5.616;2024-03-23T13:26:18;77.33;55.13;98.92;;
64545;Laerm;50936;51.660;5.616;2024-03-23T13:29:04;75.43;53.79;93.52;;
64545;Laerm;50936;51.660;5.616;2024-03-23T13:31:52;72.71;53.86;90.67;;
64545;Laerm;50936;51.660;5.616;2024-03-23T13:34:39;77.19;54.01;94.90;;
64545;Laerm;50936;51.660;5.616;2024-03-23T13:37:26;74.83;54.41;94.30;;
64545;Laerm;50936;51.660;5.616;2024-03-23T13:40:12;72.60;51.36;94.38;;
64545;Laerm;50936;51.660;5.616;2024-03-23T13:42:59;74.70;53.50;94.23;;
64545;Laerm;50936;51.660;5.616;2024-03-23T13:45:47;69.23;52.23;89.55;;
64545;Laerm;50936;51.660;5.616;2024-03-23T13:48:34;73.67;54.53;89.92;;
64545;Laerm;50936;51.660;5.616;2024-03-23T13:51:25;71.23;54.25;90.10;;
64545;Laerm;50936;51.660;5.616;2024-03-23T13:54:13;73.73;51.44;98.86;;
64545;Laerm;50936;51.660;5.616;2024-03-23T13:56:59;68.16;52.88;86.97;;
64545;Laerm;50936;51.660;5.616;2024-03-23T13:59:45;68.06;51.43;87.77;;
64545;Laerm;50936;51.660;5.616;2024-03-23T14:02:31;69.66;52.36;91.25;;
64545;Laerm;50936;51.660;5.616;2024-03-23T14:05:18;71.52;52.09;92.50;;
64545;Laerm;50936;51.660;5.616;2024-03-23T14:08:11;66.60;53.01;85.48;;
64545;Laerm;50936;51.660;5.616;2024-03-23T14:10:58;69.20;51.92;93.61;;
64545;Laerm;50936;51.660;5.616;2024-03-23T14:13:44;71.37;53.06;94.24;;
64545;Laerm;50936;51.660;5.616;2024-03-23T14:16:31;64.85;53.85;85.25;;
64545;Laerm;50936;51.660;5.616;2024-03-23T14:19:17;60.14;50.20;79.69;;
64545;Laerm;50936;51.660;5.616;2024-03-23T14:22:05;61.78;51.80;84.00;;
64545;Laerm;50936;51.660;5.616;2024-03-23T14:24:51;59.91;52.36;73.30;;
64545;Laerm;50936;51.660;5.616;2024-03-23T14:27:37;68.62;52.76;88.20;;
64545;Laerm;50936;51.660;5.616;2024-03-23T14:30:24;65.64;51.91;84.51;;
64545;Laerm;50936;51.660;5.616;2024-03-23T14:33:10;72.62;52.98;92.18;;
64545;Laerm;50936;51.660;5.616;2024-03-23T14:35:57;72.86;52.30;91.87;;
64545;Laerm;50936;51.660;5.616;2024-03-23T14:38:48;67.05;55.27;85.33;;
64545;Laerm;50936;51.660;5.616;2024-03-23T14:41:34;73.63;52.31;98.35;;
64545;Laerm;50936;51.660;5.616;2024-03-23T14:44:20;65.97;53.56;87.76;;
64545;Laerm;50936;51.660;5.616;2024-03-23T14:47:06;70.06;51.46;95.72;;
64545;Laerm;50936;51.660;5.616;2024-03-23T14:49:53;72.47;52.91;94.81;;
64545;Laerm;50936;51.660;5.616;2024-03-23T14:52:39;73.66;52.44;93.21;;
64545;Laerm;50936;51.660;5.616;2024-03-23T14:55:25;63.50;52.78;84.49;;
64545;Laerm;50936;51.660;5.616;2024-03-23T14:58:11;62.59;52.01;81.20;;
64545;Laerm;50936;51.660;5.616;2024-03-23T15:01:04;68.95;51.28;89.15;;
64545;Laerm;50936;51.660;5.616;2024-03-23T15:03:51;66.62;51.16;84.25;;
64545;Laerm;50936;51.660;5.616;2024-03-23T15:06:39;83.55;52.82;102.87;;
64545;Laerm;50936;51.660;5.616;2024-03-23T15:09:25;76.03;51.91;99.67;;
64545;Laerm;50936;51.660;5.616;2024-03-23T15:12:12;79.07;53.50;95.96;;
64545;Laerm;50936;51.660;5.616;2024-03-23T15:14:58;73.83;49.77;96.90;;
64545;Laerm;50936;51.660;5.616;2024-03-23T15:17:45;70.74;52.78;95.11;;
64545;Laerm;50936;51.660;5.616;2024-03-23T15:20:31;65.59;49.69;90.68;;
64545;Laerm;50936;51.660;5.616;2024-03-23T15:23:22;65.19;50.92;85.66;;
64545;Laerm;50936;51.660;5.616;2024-03-23T15:26:08;63.58;52.51;79.99;;
64545;Laerm;50936;51.660;5.616;2024-03-23T15:28:54;61.20;53.57;75.47;;
64545;Laerm;50936;51.660;5.616;2024-03-23T15:31:43;61.64;49.83;78.51;;
64545;Laerm;50936;51.660;5.616;2024-03-23T15:34:31;66.47;50.11;86.68;;
64545;Laerm;50936;51.660;5.616;2024-03-23T15:37:17;62.64;52.81;79.71;;
64545;Laerm;50936;51.660;5.616;2024-03-23T15:40:05;72.94;53.52;90.57;;
64545;Laerm;50936;51.660;5.616;2024-03-23T15:42:52;63.47;52.54;81.15;;
64545;Laerm;50936;51.660;5.616;2024-03-23T15:45:38;61.92;53.16;78.24;;
64545;Laerm;50936;51.660;5.616;2024-03-23T15:48:24;68.16;50.75;90.09;;
64545;Laerm;50936;51.660;5.616;2024-03-23T15:51:13;65.51;48.96;84.93;;
64545;Laerm;50936;51.660;5.616;2024-03-23T15:54:00;74.29;50.60;96.70;;
64545;Laerm;50936;51.660;5.616;2024-03-23T15:56:46;67.11;50.56;81.69;;
64545;Laerm;50936;51.660;5.616;2024-03-23T15:59:33;65.00;50.55;82.49;;
64545;Laerm;50936;51.660;5.616;2024-03-23T16:02:19;73.67;53.36;95.52;;
64545;Laerm;50936;51.660;5.616;2024-03-23T16:05:06;64.23;51.40;84.62;;
64545;Laerm;50936;51.660;5.616;2024-03-23T16:07:54;65.72;52.79;86.35;;
64545;Laerm;50936;51.660;5.616;2024-03-23T16:10:40;66.81;53.34;88.00;;
64545;Laerm;50936;51.660;5.616;2024-03-23T16:13:27;74.72;51.82;95.94;;
64545;Laerm;50936;51.660;5.616;2024-03-23T16:16:15;69.42;51.22;89.98;;
64545;Laerm;50936;51.660;5.616;2024-03-23T16:19:02;65.84;49.91;79.94;;
64545;Laerm;50936;51.660;5.616;2024-03-23T16:21:48;67.32;51.67;87.90;;
64545;Laerm;50936;51.660;5.616;2024-03-23T16:24:34;68.43;52.34;88.79;;
64545;Laerm;50936;51.660;5.616;2024-03-23T16:27:21;72.78;51.28;91.24;;
64545;Laerm;50936;51.660;5.616;2024-03-23T16:30:07;71.02;49.86;90.08;;